Time;durP1;ratioP1;P1;durP2;ratioP2;P2;SDS_P1;SDS_P2;PMS_P1;PMS_P2;Temp;Humidity;BMP_temperature;BMP_pressure;BME280_temperature;BME280_humidity;BME280_pressure;Samples;Min_cycle;Max_cycle;Signal;HPM_P1;HPM_P2
2021/05/02 00:02:09;;;;;;;22.02;13.90;;;;;;;12.31;75.46;99651.88;1670265;84;21048;-82
2021/05/02 00:04:35;;;;;;;18.23;12.90;;;;;;;12.25;75.46;99641.19;1668928;84;21307;-80
2021/05/02 00:07:02;;;;;;;20.88;14.00;;;;;;;12.19;75.78;99647.50;1662065;84;27294;-81
2021/05/02 00:09:30;;;;;;;20.20;13.72;;;;;;;12.25;75.49;99633.24;1669695;84;21217;-81
2021/05/02 00:11:57;;;;;;;20.97;14.05;;;;;;;12.14;75.88;99624.72;1670164;85;21137;-81
2021/05/02 00:14:23;;;;;;;20.57;13.75;;;;;;;12.21;75.66;99623.02;1671983;84;21197;-80
2021/05/02 00:16:51;;;;;;;21.50;13.43;;;;;;;11.98;76.41;99617.75;1667014;85;21100;-82
2021/05/02 00:19:17;;;;;;;21.42;13.72;;;;;;;11.97;76.48;99619.25;1671779;84;21535;-82
2021/05/02 00:21:44;;;;;;;20.00;13.30;;;;;;;11.88;76.83;99614.48;1668226;84;21205;-81
2021/05/02 00:24:09;;;;;;;20.17;13.45;;;;;;;11.79;77.35;99607.14;1646381;85;21227;-80
2021/05/02 00:26:35;;;;;;;19.02;14.10;;;;;;;11.77;77.60;99599.86;1667694;84;21812;-81
2021/05/02 00:29:01;;;;;;;18.30;13.72;;;;;;;11.77;77.56;99595.89;1669374;84;21198;-79
2021/05/02 00:31:27;;;;;;;23.52;14.33;;;;;;;11.62;78.22;99597.18;1671011;84;27343;-80
2021/05/02 00:33:52;;;;;;;20.97;13.45;;;;;;;11.59;78.39;99592.24;1670279;84;25956;-82
2021/05/02 00:36:18;;;;;;;20.15;14.15;;;;;;;11.65;78.41;99598.63;1668517;84;28429;-82
2021/05/02 00:38:44;;;;;;;19.80;13.48;;;;;;;11.69;78.14;99601.25;1670047;84;20964;-82
2021/05/02 00:41:22;;;;;;;21.30;14.05;;;;;;;11.68;78.29;99604.89;1670045;84;21482;-80
2021/05/02 00:44:00;;;;;;;18.92;12.93;;;;;;;11.70;78.22;99606.88;1671153;84;21250;-82
2021/05/02 00:46:44;;;;;;;19.05;13.60;;;;;;;11.73;78.06;99600.39;1667342;84;21189;-82
2021/05/02 00:49:38;;;;;;;18.12;13.72;;;;;;;11.68;78.25;99598.27;1672419;84;21205;-82
2021/05/02 00:52:19;;;;;;;19.67;14.30;;;;;;;11.75;77.94;99596.58;1672307;85;21198;-81
2021/05/02 00:54:47;;;;;;;20.30;13.90;;;;;;;11.84;77.68;99589.41;1666537;84;21393;-81
2021/05/02 00:57:27;;;;;;;17.17;13.18;;;;;;;11.88;77.37;99593.83;1667528;84;21699;-80
2021/05/02 01:00:05;;;;;;;20.43;14.03;;;;;;;11.88;77.14;99590.67;1659656;84;21229;-81
2021/05/02 01:02:34;;;;;;;21.00;14.05;;;;;;;11.78;77.56;99581.67;1641213;85;21213;-79
2021/05/02 01:05:04;;;;;;;19.50;13.88;;;;;;;11.70;77.87;99572.48;1668469;85;21242;-80
2021/05/02 01:07:37;;;;;;;18.67;13.60;;;;;;;11.73;77.63;99561.55;1650913;85;21205;-81
2021/05/02 01:10:11;;;;;;;19.95;14.60;;;;;;;11.65;77.96;99557.63;1662728;85;21249;-82
2021/05/02 01:12:47;;;;;;;21.33;14.60;;;;;;;11.70;77.60;99557.94;1656699;84;21146;-82
2021/05/02 01:15:19;;;;;;;16.82;12.75;;;;;;;11.69;77.58;99552.32;1662876;84;21348;-85
2021/05/02 01:17:43;;;;;;;20.62;13.55;;;;;;;11.75;77.45;99559.55;1655409;84;21189;-83
2021/05/02 01:20:12;;;;;;;20.05;14.05;;;;;;;11.81;77.23;99576.03;1624253;85;21296;-83
2021/05/02 01:22:40;;;;;;;20.72;14.15;;;;;;;11.84;77.19;99587.58;1650391;85;21217;-82
2021/05/02 01:25:08;;;;;;;18.87;13.98;;;;;;;12.08;75.99;99592.35;1632072;85;21221;-82
2021/05/02 01:27:34;;;;;;;19.73;13.95;;;;;;;11.96;76.46;99586.69;1665993;85;21230;-81
2021/05/02 01:30:06;;;;;;;19.25;13.62;;;;;;;11.98;76.34;99587.83;1656431;85;21205;-81
2021/05/02 01:32:32;;;;;;;19.52;13.10;;;;;;;11.93;76.61;99583.56;1666771;84;21792;-83
2021/05/02 01:34:58;;;;;;;18.82;12.82;;;;;;;11.88;76.53;99580.09;1659783;85;27341;-82
2021/05/02 01:37:24;;;;;;;18.07;13.20;;;;;;;11.80;76.94;99575.70;1655352;85;21637;-83
2021/05/02 01:39:50;;;;;;;18.35;12.65;;;;;;;11.74;77.03;99563.18;1662957;85;21019;-83
2021/05/02 01:42:16;;;;;;;18.40;14.03;;;;;;;11.79;77.17;99546.30;1666633;84;21060;-82
2021/05/02 01:44:41;;;;;;;19.82;14.23;;;;;;;11.72;77.19;99532.12;1662568;84;21429;-79
2021/05/02 01:47:17;;;;;;;19.85;13.15;;;;;;;11.76;77.11;99532.10;1665700;84;25817;-81
2021/05/02 01:49:51;;;;;;;19.73;14.20;;;;;;;11.68;77.38;99517.61;1666210;85;21233;-82
2021/05/02 01:52:17;;;;;;;18.80;12.82;;;;;;;11.72;77.20;99510.97;1664302;84;21179;-82
2021/05/02 01:54:43;;;;;;;17.57;13.23;;;;;;;11.66;77.45;99516.97;1656476;85;21797;-78
2021/05/02 01:57:09;;;;;;;17.35;12.90;;;;;;;11.74;77.28;99512.92;1659105;84;22245;-83
2021/05/02 01:59:37;;;;;;;17.87;12.90;;;;;;;11.58;77.78;99505.16;1667430;84;27219;-79
2021/05/02 02:02:03;;;;;;;18.00;12.88;;;;;;;11.41;78.61;99507.92;1667551;84;21254;-84
2021/05/02 02:04:29;;;;;;;16.97;12.35;;;;;;;11.45;78.52;99502.61;1665549;85;21223;-79
2021/05/02 02:06:57;;;;;;;17.75;13.15;;;;;;;11.52;78.32;99501.89;1664063;84;20974;-82
2021/05/02 02:09:22;;;;;;;;;;;;;;;11.54;78.30;99503.85;1660411;85;21732;-83
2021/05/02 02:11:49;;;;;;;18.05;12.88;;;;;;;11.65;78.02;99502.94;1659060;85;20211;-79
2021/05/02 02:14:15;;;;;;;17.77;13.40;;;;;;;11.27;79.26;99498.13;1661294;84;22405;-80
2021/05/02 02:16:42;;;;;;;18.12;12.98;;;;;;;11.53;78.66;99491.63;1658903;85;28482;-79
2021/05/02 02:19:08;;;;;;;19.27;13.43;;;;;;;11.52;78.75;99484.71;1656012;85;21608;-79
2021/05/02 02:21:33;;;;;;;17.77;13.68;;;;;;;11.52;78.71;99483.39;1652554;85;22032;-83
2021/05/02 02:24:00;;;;;;;17.87;13.62;;;;;;;11.41;78.93;99468.27;1642585;85;27633;-79
2021/05/02 02:26:37;;;;;;;18.00;13.05;;;;;;;11.45;78.98;99461.63;1658463;85;21142;-80
2021/05/02 02:29:04;;;;;;;19.92;14.40;;;;;;;11.44;79.07;99459.16;1657110;84;21692;-80
2021/05/02 02:31:35;;;;;;;18.27;12.90;;;;;;;11.48;79.16;99458.63;1638802;85;21254;-80
2021/05/02 02:34:03;;;;;;;20.27;13.55;;;;;;;11.44;78.99;99462.62;1666539;84;21420;-81
2021/05/02 02:36:29;;;;;;;17.05;12.90;;;;;;;11.54;78.88;99456.26;1658822;84;21237;-78
2021/05/02 02:38:55;;;;;;;18.67;13.28;;;;;;;11.42;79.51;99448.77;1658765;85;25321;-78
2021/05/02 02:41:20;;;;;;;19.92;14.00;;;;;;;11.48;79.39;99437.48;1659336;85;21015;-77
2021/05/02 02:43:58;;;;;;;19.98;13.80;;;;;;;11.56;79.10;99429.13;1656363;84;20980;-77
2021/05/02 02:46:24;;;;;;;21.40;14.75;;;;;;;11.62;78.96;99431.05;1648292;84;21230;-78
2021/05/02 02:48:56;;;;;;;18.35;13.55;;;;;;;11.80;78.14;99424.91;1660892;84;21269;-79
2021/05/02 02:51:25;;;;;;;19.42;13.65;;;;;;;11.82;78.11;99420.28;1658246;84;21779;-79
2021/05/02 02:53:51;;;;;;;20.08;13.55;;;;;;;11.76;78.01;99417.03;1660736;84;21217;-78
2021/05/02 02:56:19;;;;;;;21.23;13.00;;;;;;;11.81;77.96;99420.46;1667141;85;21217;-82
2021/05/02 02:59:05;;;;;;;18.42;14.25;;;;;;;11.75;78.16;99415.39;1657275;85;21476;-87
2021/05/02 03:01:31;;;;;;;19.12;12.98;;;;;;;11.73;78.28;99405.50;1660950;85;21217;-81
2021/05/02 03:03:58;;;;;;;18.17;12.10;;;;;;;11.70;78.35;99404.54;1647292;85;25305;-79
2021/05/02 03:06:28;;;;;;;18.17;13.75;;;;;;;11.61;78.69;99405.63;1663510;85;21691;-77
2021/05/02 03:08:57;;;;;;;19.30;13.45;;;;;;;11.59;78.89;99384.66;1657390;85;21676;-79
2021/05/02 03:11:24;;;;;;;16.73;12.37;;;;;;;11.52;79.19;99385.56;1661469;85;21907;-78
2021/05/02 03:13:50;;;;;;;19.10;13.93;;;;;;;11.53;79.09;99372.16;1655761;84;21241;-79
2021/05/02 03:16:19;;;;;;;18.48;14.15;;;;;;;11.55;79.10;99357.44;1665880;84;25376;-77
2021/05/02 03:19:01;;;;;;;17.12;12.90;;;;;;;11.58;79.05;99359.71;1663058;84;21214;-78
2021/05/02 03:21:52;;;;;;;16.62;13.18;;;;;;;11.54;79.16;99366.36;1666350;84;21229;-82
2021/05/02 03:24:29;;;;;;;17.07;13.00;;;;;;;11.47;79.54;99372.38;1659260;85;21275;-83
2021/05/02 03:26:59;;;;;;;19.65;13.65;;;;;;;11.50;79.58;99362.75;1662452;85;21222;-79
2021/05/02 03:29:25;;;;;;;18.60;14.18;;;;;;;11.45;79.76;99349.27;1661784;84;21241;-82
2021/05/02 03:31:51;;;;;;;18.98;13.75;;;;;;;11.44;79.84;99348.13;1659445;85;20955;-79
2021/05/02 03:34:16;;;;;;;19.23;13.98;;;;;;;11.35;80.20;99346.05;1661990;84;21213;-78
2021/05/02 03:36:46;;;;;;;17.52;13.15;;;;;;;11.42;80.12;99339.53;1663668;85;21934;-78
2021/05/02 03:39:12;;;;;;;18.60;14.03;;;;;;;11.40;80.18;99330.97;1655942;85;21639;-81
2021/05/02 03:41:38;;;;;;;17.50;13.03;;;;;;;11.41;80.18;99325.51;1661451;84;21229;-84
2021/05/02 03:44:04;;;;;;;19.00;14.05;;;;;;;11.47;79.80;99323.45;1650710;85;21031;-79
2021/05/02 03:46:30;;;;;;;18.42;13.55;;;;;;;11.49;79.85;99314.02;1657856;85;21209;-79
2021/05/02 03:49:07;;;;;;;19.52;14.58;;;;;;;11.47;79.76;99319.49;1658637;84;21238;-77
2021/05/02 03:51:39;;;;;;;19.17;14.25;;;;;;;11.48;79.97;99311.89;1662661;85;21287;-79
2021/05/02 03:54:05;;;;;;;19.80;14.40;;;;;;;11.40;80.47;99305.34;1663020;85;21209;-83
2021/05/02 03:56:39;;;;;;;19.65;14.65;;;;;;;11.50;79.88;99297.98;1665004;85;21687;-81
2021/05/02 03:59:20;;;;;;;19.95;14.40;;;;;;;11.43;80.27;99294.92;1655345;85;21621;-78
2021/05/02 04:01:52;;;;;;;19.10;13.58;;;;;;;11.54;80.08;99299.74;1665799;84;21698;-78
2021/05/02 04:04:19;;;;;;;18.23;14.03;;;;;;;11.57;79.82;99307.82;1641380;85;22036;-77
2021/05/02 04:06:45;;;;;;;19.98;14.25;;;;;;;11.77;79.08;99323.44;1664704;84;21242;-80
2021/05/02 04:09:13;;;;;;;19.67;13.85;;;;;;;11.83;78.94;99331.95;1659796;84;20983;-79
2021/05/02 04:11:40;;;;;;;19.25;14.65;;;;;;;11.75;79.17;99309.58;1659256;84;21596;-81
2021/05/02 04:14:08;;;;;;;20.30;14.30;;;;;;;11.79;78.87;99304.25;1665574;84;21225;-79
2021/05/02 04:16:34;;;;;;;18.05;13.10;;;;;;;11.94;78.34;99308.72;1662986;84;21201;-81
2021/05/02 04:19:00;;;;;;;17.77;13.60;;;;;;;11.86;78.54;99321.00;1656822;85;21905;-78
2021/05/02 04:21:26;;;;;;;18.92;13.65;;;;;;;11.89;78.47;99333.05;1658102;85;21169;-78
2021/05/02 04:23:52;;;;;;;19.05;14.03;;;;;;;11.89;78.52;99316.38;1657191;85;20916;-78
2021/05/02 04:26:18;;;;;;;18.20;13.70;;;;;;;11.80;78.74;99308.52;1661363;85;21154;-79
2021/05/02 04:28:44;;;;;;;17.30;13.05;;;;;;;11.85;78.68;99310.13;1661472;85;21182;-79
2021/05/02 04:31:10;;;;;;;22.00;13.80;;;;;;;11.89;78.60;99307.11;1657600;85;21253;-78
2021/05/02 04:33:36;;;;;;;19.15;13.60;;;;;;;11.84;78.77;99306.34;1660179;84;20972;-77
2021/05/02 04:36:02;;;;;;;19.70;13.32;;;;;;;11.86;78.88;99297.20;1661680;84;20960;-81
2021/05/02 04:38:28;;;;;;;19.15;13.55;;;;;;;11.86;78.89;99291.91;1659330;85;21250;-79
2021/05/02 04:40:53;;;;;;;20.00;13.50;;;;;;;11.90;78.72;99283.59;1655666;85;27000;-79
2021/05/02 04:43:19;;;;;;;19.05;13.80;;;;;;;11.99;78.75;99271.92;1655313;85;25385;-78
2021/05/02 04:45:45;;;;;;;18.25;13.00;;;;;;;12.00;78.53;99259.83;1657859;85;20972;-78
2021/05/02 04:48:11;;;;;;;18.20;13.40;;;;;;;11.95;78.67;99249.52;1656160;85;21167;-78
2021/05/02 04:50:37;;;;;;;19.00;13.85;;;;;;;12.01;78.42;99234.22;1663695;84;21286;-78
2021/05/02 04:53:03;;;;;;;21.95;15.13;;;;;;;12.03;78.36;99233.52;1661141;84;27090;-79
2021/05/02 04:55:29;;;;;;;18.67;13.58;;;;;;;12.11;78.08;99225.95;1658460;84;21261;-78
2021/05/02 04:57:55;;;;;;;19.20;13.65;;;;;;;12.03;78.32;99238.80;1659806;85;21036;-78
2021/05/02 05:00:23;;;;;;;20.12;13.95;;;;;;;12.13;78.13;99252.53;1662103;84;21185;-78
2021/05/02 05:02:49;;;;;;;19.60;14.10;;;;;;;12.16;78.03;99261.93;1669707;84;21110;-80
2021/05/02 05:05:15;;;;;;;19.35;14.15;;;;;;;12.14;78.02;99254.17;1665069;85;24465;-78
2021/05/02 05:07:40;;;;;;;20.52;14.53;;;;;;;12.19;78.11;99242.51;1665792;84;25798;-80
2021/05/02 05:10:08;;;;;;;23.22;14.28;;;;;;;12.13;78.10;99212.83;1668683;85;21588;-81
2021/05/02 05:12:33;;;;;;;19.52;14.05;;;;;;;12.09;78.54;99205.45;1671159;84;21265;-85
2021/05/02 05:14:59;;;;;;;19.25;13.93;;;;;;;12.18;78.24;99214.42;1623664;85;21442;-78
2021/05/02 05:17:25;;;;;;;20.77;14.30;;;;;;;12.23;78.18;99217.83;1665841;84;20935;-78
2021/05/02 05:19:51;;;;;;;19.92;14.28;;;;;;;12.29;77.99;99229.46;1671140;84;20969;-79
2021/05/02 05:22:16;;;;;;;17.92;14.28;;;;;;;12.33;77.91;99235.52;1671067;84;21026;-78
2021/05/02 05:24:42;;;;;;;19.95;14.33;;;;;;;12.34;77.85;99222.60;1673838;84;20935;-80
2021/05/02 05:27:08;;;;;;;19.52;14.13;;;;;;;12.39;77.58;99218.06;1666742;84;21430;-79
2021/05/02 05:29:34;;;;;;;22.15;13.50;;;;;;;12.55;76.93;99207.20;1658308;85;21018;-80
2021/05/02 05:31:59;;;;;;;17.87;13.93;;;;;;;12.74;76.39;99203.56;1662378;84;25841;-80
2021/05/02 05:34:25;;;;;;;18.73;13.78;;;;;;;12.74;76.22;99212.32;1667365;84;20976;-82
2021/05/02 05:36:51;;;;;;;18.70;13.62;;;;;;;12.79;75.95;99206.44;1666002;84;21325;-79
2021/05/02 05:39:16;;;;;;;17.65;12.75;;;;;;;12.75;76.11;99191.94;1662662;85;21267;-79
2021/05/02 05:41:42;;;;;;;21.02;13.88;;;;;;;12.84;75.72;99201.37;1667770;84;20957;-82
2021/05/02 05:44:08;;;;;;;19.15;13.05;;;;;;;12.74;76.16;99192.97;1668221;84;20975;-80
2021/05/02 05:46:34;;;;;;;18.45;14.45;;;;;;;12.77;76.07;99189.94;1669467;84;21039;-81
2021/05/02 05:49:00;;;;;;;19.30;13.95;;;;;;;12.82;75.75;99184.02;1672015;84;20974;-77
2021/05/02 05:51:25;;;;;;;18.02;13.00;;;;;;;12.91;75.64;99181.53;1671060;84;21201;-83
2021/05/02 05:53:51;;;;;;;17.48;13.35;;;;;;;12.73;75.97;99179.40;1668259;84;20975;-83
2021/05/02 05:56:17;;;;;;;18.02;13.32;;;;;;;12.79;75.94;99169.87;1675320;84;20991;-81
2021/05/02 05:58:43;;;;;;;19.27;13.53;;;;;;;12.90;75.53;99172.77;1638695;86;21054;-86
2021/05/02 06:01:08;;;;;;;19.62;13.62;;;;;;;12.84;75.78;99171.41;1672291;85;21684;-83
2021/05/02 06:03:34;;;;;;;17.90;12.98;;;;;;;12.86;75.88;99164.89;1657829;84;21664;-81
2021/05/02 06:06:00;;;;;;;19.73;12.65;;;;;;;12.84;75.76;99162.95;1683285;84;21037;-79
2021/05/02 06:08:25;;;;;;;16.95;13.10;;;;;;;12.86;75.67;99156.94;1677964;84;22779;-79
2021/05/02 06:10:51;;;;;;;18.23;12.70;;;;;;;12.97;75.35;99142.84;1671337;85;21169;-79
2021/05/02 06:13:18;;;;;;;18.70;13.30;;;;;;;12.86;75.61;99133.61;1674376;84;21159;-79
2021/05/02 06:15:44;;;;;;;18.32;12.45;;;;;;;12.90;75.58;99123.75;1672196;84;21252;-82
2021/05/02 06:18:10;;;;;;;17.32;12.75;;;;;;;13.01;75.45;99113.61;1660149;84;21197;-80
2021/05/02 06:20:36;;;;;;;17.48;12.28;;;;;;;13.00;75.08;99109.32;1678365;83;21198;-83
2021/05/02 06:23:02;;;;;;;18.45;13.38;;;;;;;13.07;74.98;99096.92;1661350;84;20944;-81
2021/05/02 06:25:28;;;;;;;19.07;14.03;;;;;;;13.06;74.96;99103.23;1690509;84;20901;-82
2021/05/02 06:27:53;;;;;;;18.92;13.60;;;;;;;13.15;74.56;99098.58;1671312;84;22016;-81
2021/05/02 06:30:21;;;;;;;18.37;13.38;;;;;;;13.20;74.24;99092.17;1667504;84;23061;-81
2021/05/02 06:32:47;;;;;;;17.25;12.90;;;;;;;13.02;74.76;99084.27;1670519;84;21174;-87
2021/05/02 06:35:13;;;;;;;17.23;12.33;;;;;;;13.03;74.87;99076.61;1668332;84;20995;-81
2021/05/02 06:37:38;;;;;;;16.75;12.60;;;;;;;13.05;74.69;99069.78;1669184;84;21170;-80
2021/05/02 06:40:06;;;;;;;18.27;13.03;;;;;;;13.13;74.47;99072.27;1669197;84;21308;-82
2021/05/02 06:42:31;;;;;;;17.82;11.85;;;;;;;13.13;74.27;99069.63;1669905;85;21249;-82
2021/05/02 06:44:57;;;;;;;18.10;12.85;;;;;;;13.14;74.54;99059.31;1668417;84;21141;-82
2021/05/02 06:47:23;;;;;;;17.55;11.90;;;;;;;13.28;73.67;99039.79;1671791;84;21290;-82
2021/05/02 06:49:49;;;;;;;17.47;12.20;;;;;;;13.34;73.60;99030.74;1669139;84;20981;-80
2021/05/02 06:52:16;;;;;;;17.65;12.45;;;;;;;13.40;73.36;99018.00;1671391;84;21219;-80
2021/05/02 06:54:42;;;;;;;17.82;12.90;;;;;;;13.42;73.24;99014.62;1641915;85;21308;-80
2021/05/02 06:57:09;;;;;;;16.70;12.43;;;;;;;13.55;72.96;99008.02;1669850;84;21449;-82
2021/05/02 06:59:34;;;;;;;16.67;11.65;;;;;;;13.49;72.97;99002.20;1671203;84;21197;-82
2021/05/02 07:02:00;;;;;;;17.42;12.30;;;;;;;13.46;73.08;98994.66;1665520;84;21011;-80
2021/05/02 07:04:31;;;;;;;18.00;11.48;;;;;;;13.46;73.15;99001.28;1653305;85;21125;-80
2021/05/02 07:06:53;;;;;;;;;;;;;;;13.46;73.07;98997.30;1660456;85;22312;-78
2021/05/02 07:09:19;;;;;;;15.63;11.25;;;;;;;13.41;72.95;98991.80;1653489;85;20496;-85
2021/05/02 07:11:45;;;;;;;17.30;11.15;;;;;;;13.36;73.24;98978.31;1658872;85;21300;-79
2021/05/02 07:14:11;;;;;;;14.50;10.95;;;;;;;13.41;72.91;98972.72;1650265;84;20983;-79
2021/05/02 07:16:36;;;;;;;17.10;11.78;;;;;;;13.43;72.99;98960.06;1658430;85;21242;-79
2021/05/02 07:19:04;;;;;;;14.73;11.15;;;;;;;13.40;72.88;98947.21;1653006;85;21028;-83
2021/05/02 07:21:30;;;;;;;;;;;;;;;13.43;72.87;98935.39;1651619;85;21601;-82
2021/05/02 07:23:55;;;;;;;15.00;10.78;;;;;;;13.45;72.69;98929.36;1652788;84;20219;-84
2021/05/02 07:26:22;;;;;;;16.32;11.83;;;;;;;13.39;72.73;98928.36;1665853;84;21034;-82
2021/05/02 07:28:49;;;;;;;16.00;11.53;;;;;;;13.40;73.03;98933.14;1652026;85;22548;-82
2021/05/02 07:31:15;;;;;;;12.85;10.48;;;;;;;13.42;73.05;98927.95;1652295;84;21214;-77
2021/05/02 07:33:41;;;;;;;14.55;10.58;;;;;;;13.40;73.81;98908.77;1662051;84;21222;-79
2021/05/02 07:36:07;;;;;;;15.28;11.35;;;;;;;13.37;74.46;98908.36;1651326;85;22425;-81
2021/05/02 07:38:33;;;;;;;15.30;11.38;;;;;;;13.41;74.44;98896.34;1652640;85;21633;-82
2021/05/02 07:40:59;;;;;;;15.83;11.55;;;;;;;13.39;75.12;98890.41;1662204;84;21205;-78
2021/05/02 07:43:25;;;;;;;14.83;11.15;;;;;;;13.35;75.42;98870.64;1652862;85;21613;-81
2021/05/02 07:45:51;;;;;;;15.40;10.50;;;;;;;13.37;75.25;98868.59;1653041;85;21049;-79
2021/05/02 07:48:17;;;;;;;18.48;11.18;;;;;;;13.42;75.21;98871.43;1650887;85;21162;-81
2021/05/02 07:50:44;;;;;;;16.30;11.65;;;;;;;13.45;74.93;98863.06;1666433;84;21253;-81
2021/05/02 07:53:12;;;;;;;;;;;;;;;13.42;74.91;98863.48;1667454;85;21211;-81
2021/05/02 07:55:37;;;;;;;;;;;;;;;13.40;75.14;98857.58;1661073;85;20278;-82
2021/05/02 07:58:03;;;;;;;14.83;10.82;;;;;;;13.42;75.05;98852.87;1665958;84;20195;-84
2021/05/02 08:00:29;;;;;;;13.70;10.98;;;;;;;13.34;74.93;98849.11;1664674;85;21102;-83
2021/05/02 08:02:55;;;;;;;14.65;11.15;;;;;;;13.24;75.30;98831.77;1662369;84;20982;-81
2021/05/02 08:05:20;;;;;;;15.13;11.28;;;;;;;13.35;74.98;98833.52;1666640;85;21221;-82
2021/05/02 08:07:46;;;;;;;15.88;11.10;;;;;;;13.20;75.60;98830.53;1668908;85;20956;-82
2021/05/02 08:10:12;;;;;;;14.38;11.33;;;;;;;13.23;75.97;98828.80;1671045;84;21147;-82
2021/05/02 08:12:38;;;;;;;14.75;10.75;;;;;;;13.36;75.91;98825.85;1670919;84;21089;-81
2021/05/02 08:15:05;;;;;;;15.48;11.35;;;;;;;13.35;75.99;98823.72;1669288;84;21217;-82
2021/05/02 08:17:31;;;;;;;15.88;11.83;;;;;;;13.44;76.17;98811.87;1666444;85;21219;-81
2021/05/02 08:19:57;;;;;;;15.60;11.65;;;;;;;13.57;75.82;98805.71;1669238;84;21773;-82
2021/05/02 08:22:24;;;;;;;16.30;11.75;;;;;;;13.67;75.76;98804.45;1669662;84;21027;-81
2021/05/02 08:24:50;;;;;;;18.15;11.85;;;;;;;13.64;75.24;98797.23;1670499;84;21217;-82
2021/05/02 08:27:15;;;;;;;16.27;11.83;;;;;;;13.57;75.76;98788.47;1669136;84;20969;-81
2021/05/02 08:29:41;;;;;;;15.50;11.43;;;;;;;13.61;75.46;98788.86;1665951;85;21207;-84
2021/05/02 08:32:07;;;;;;;14.95;11.03;;;;;;;13.48;76.07;98780.44;1666372;85;20974;-91
2021/05/02 08:34:33;;;;;;;15.70;11.38;;;;;;;13.60;75.22;98782.75;1667998;84;21086;-81
2021/05/02 08:36:58;;;;;;;16.75;11.53;;;;;;;13.55;75.24;98767.98;1661701;85;20948;-80
2021/05/02 08:39:24;;;;;;;14.47;11.43;;;;;;;13.54;75.30;98765.54;1664089;84;21070;-81
2021/05/02 08:41:50;;;;;;;14.87;10.85;;;;;;;13.40;75.89;98759.46;1665750;85;21150;-83
2021/05/02 08:44:26;;;;;;;15.23;11.38;;;;;;;13.40;76.06;98759.46;1648937;85;41689;-81
2021/05/02 08:46:52;;;;;;;15.15;11.35;;;;;;;13.46;76.32;98753.33;1667727;85;21233;-83
2021/05/02 08:49:21;;;;;;;15.98;11.70;;;;;;;13.28;77.45;98739.37;1662847;84;21685;-82
2021/05/02 08:51:47;;;;;;;16.95;11.63;;;;;;;13.11;78.27;98727.07;1665762;84;21628;-87
2021/05/02 08:54:13;;;;;;;15.32;11.75;;;;;;;13.22;78.56;98717.17;1670216;84;21898;-81
2021/05/02 08:56:39;;;;;;;17.67;12.20;;;;;;;13.04;79.37;98720.99;1666887;84;27507;-80
2021/05/02 08:59:09;;;;;;;16.62;11.57;;;;;;;13.18;78.98;98709.33;1664432;85;21635;-82
2021/05/02 09:01:35;;;;;;;18.90;12.73;;;;;;;13.03;79.66;98702.94;1672643;84;21241;-83
2021/05/02 09:04:06;;;;;;;16.27;11.80;;;;;;;13.05;79.61;98718.14;1668138;85;21147;-80
2021/05/02 09:06:32;;;;;;;16.50;11.85;;;;;;;13.13;79.39;98747.58;1666751;85;22326;-83
2021/05/02 09:09:04;;;;;;;17.57;12.93;;;;;;;13.13;79.62;98733.00;1667080;84;21779;-84
2021/05/02 09:11:38;;;;;;;16.17;11.48;;;;;;;13.00;80.68;98719.77;1662732;85;21129;-84
2021/05/02 09:14:21;;;;;;;15.78;11.80;;;;;;;12.97;81.15;98731.58;1670471;84;21125;-81
2021/05/02 09:16:56;;;;;;;18.20;12.85;;;;;;;12.99;81.33;98726.08;1669869;85;21120;-85
2021/05/02 09:19:29;;;;;;;19.98;12.95;;;;;;;12.95;81.50;98719.58;1669502;85;21275;-84
2021/05/02 09:21:54;;;;;;;18.82;13.20;;;;;;;13.03;81.34;98733.93;1667564;85;21547;-85
2021/05/02 09:24:32;;;;;;;16.17;12.58;;;;;;;13.05;81.01;98742.48;1669760;85;20948;-83
2021/05/02 09:27:07;;;;;;;;;;;;;;;13.12;81.20;98724.73;1668100;85;21696;-81
2021/05/02 09:29:34;;;;;;;16.42;12.03;;;;;;;13.09;82.07;98714.55;1671633;84;20326;-83
2021/05/02 09:32:00;;;;;;;15.45;12.50;;;;;;;13.03;82.82;98708.75;1672254;84;21269;-82
2021/05/02 09:34:26;;;;;;;18.95;13.60;;;;;;;13.01;83.11;98694.91;1658417;84;21200;-84
2021/05/02 09:36:56;;;;;;;18.98;13.93;;;;;;;12.90;83.76;98685.23;1661070;85;26956;-83
2021/05/02 09:39:50;;;;;;;18.00;13.08;;;;;;;12.96;84.12;98686.25;1636756;85;21231;-85
2021/05/02 09:42:30;;;;;;;19.30;13.95;;;;;;;12.92;84.61;98688.48;1668493;84;21221;-85
2021/05/02 09:44:56;;;;;;;18.75;13.60;;;;;;;13.02;84.52;98671.34;1664242;84;21119;-85
2021/05/02 09:47:38;;;;;;;17.95;14.23;;;;;;;13.08;84.09;98666.53;1662283;84;21289;-84
2021/05/02 09:50:14;;;;;;;19.30;14.38;;;;;;;13.06;84.20;98654.01;1669418;84;21244;-82
2021/05/02 09:52:49;;;;;;;17.40;13.48;;;;;;;13.07;84.30;98639.23;1663806;84;21663;-82
2021/05/02 09:55:37;;;;;;;18.87;14.00;;;;;;;13.08;83.99;98626.78;1671575;84;21237;-85
2021/05/02 09:58:11;;;;;;;18.55;13.75;;;;;;;12.99;84.64;98598.39;1665328;85;21237;-83
2021/05/02 10:00:41;;;;;;;18.60;13.85;;;;;;;12.93;85.50;98582.02;1662010;85;21285;-82
2021/05/02 10:03:26;;;;;;;19.12;14.03;;;;;;;13.09;84.93;98572.77;1648722;85;21691;-80
2021/05/02 10:06:08;;;;;;;20.02;14.30;;;;;;;13.01;84.93;98572.49;1666784;84;21228;-79
2021/05/02 10:08:36;;;;;;;18.12;13.72;;;;;;;13.14;85.04;98563.66;1668998;85;21655;-79
2021/05/02 10:11:05;;;;;;;19.40;15.23;;;;;;;12.95;85.98;98557.95;1669764;84;21414;-78
2021/05/02 10:13:31;;;;;;;18.70;14.75;;;;;;;13.13;85.56;98551.94;1675520;83;21252;-84
2021/05/02 10:16:01;;;;;;;19.27;14.73;;;;;;;12.93;86.31;98535.13;1650868;85;20978;-80
2021/05/02 10:18:24;;;;;;;;;;;;;;;13.05;86.05;98541.08;1672040;84;21677;-81
2021/05/02 10:20:50;;;;;;;19.52;14.63;;;;;;;13.09;86.12;98538.31;1670402;84;21309;-81
2021/05/02 10:23:16;;;;;;;23.07;15.70;;;;;;;13.04;86.45;98519.59;1670250;85;21186;-82
2021/05/02 10:25:43;;;;;;;22.82;16.02;;;;;;;13.10;86.39;98525.38;1670133;84;22146;-80
2021/05/02 10:28:09;;;;;;;22.67;15.53;;;;;;;13.21;85.88;98516.73;1670002;85;21220;-84
2021/05/02 10:30:40;;;;;;;21.40;15.10;;;;;;;13.13;86.19;98522.78;1669110;85;21608;-81
2021/05/02 10:33:14;;;;;;;22.00;16.10;;;;;;;13.19;85.93;98522.77;1669378;84;22102;-82
2021/05/02 10:35:54;;;;;;;25.60;17.67;;;;;;;13.09;86.95;98511.81;1667669;84;22459;-79
2021/05/02 10:38:42;;;;;;;21.93;16.10;;;;;;;13.26;86.17;98532.00;1669235;84;21576;-84
2021/05/02 10:41:35;;;;;;;23.00;16.90;;;;;;;13.05;87.05;98521.20;1668936;85;21199;-82
2021/05/02 10:44:18;;;;;;;23.20;17.10;;;;;;;13.14;86.98;98522.57;1669256;84;21242;-80
2021/05/02 10:46:50;;;;;;;25.15;17.32;;;;;;;13.15;86.75;98532.16;1668465;84;21455;-82
2021/05/02 10:49:24;;;;;;;21.75;16.62;;;;;;;13.20;87.06;98536.83;1668423;84;22290;-83
2021/05/02 10:51:53;;;;;;;23.47;17.50;;;;;;;13.32;86.39;98519.73;1640643;87;21452;-81
2021/05/02 10:54:42;;;;;;;25.15;17.62;;;;;;;13.26;87.01;98525.38;1640719;85;21685;-84
2021/05/02 10:57:08;;;;;;;23.87;17.73;;;;;;;13.37;86.62;98516.75;1669338;84;21733;-81
2021/05/02 11:00:03;;;;;;;24.80;18.80;;;;;;;13.08;88.66;98500.41;1669845;85;21231;-81
2021/05/02 11:02:43;;;;;;;21.85;16.20;;;;;;;13.36;87.86;98512.98;1670037;84;21222;-81
2021/05/02 11:05:15;;;;;;;25.45;17.40;;;;;;;13.37;87.27;98518.08;1659065;85;21225;-88
2021/05/02 11:07:43;;;;;;;19.57;15.58;;;;;;;13.40;87.15;98507.56;1639921;85;21205;-86
2021/05/02 11:10:12;;;;;;;24.43;17.73;;;;;;;13.42;87.81;98502.84;1656345;85;22531;-86
2021/05/02 11:12:38;;;;;;;25.30;18.07;;;;;;;13.55;87.41;98502.77;1663876;85;21487;-85
2021/05/02 11:15:31;;;;;;;24.87;18.17;;;;;;;13.50;87.90;98491.17;1663960;84;21250;-85
2021/05/02 11:17:57;;;;;;;25.50;17.70;;;;;;;13.63;87.22;98479.94;1658743;84;21032;-87
2021/05/02 11:20:52;;;;;;;26.15;19.37;;;;;;;13.51;88.36;98469.73;1660002;84;21633;-87
2021/05/02 11:23:40;;;;;;;26.45;19.73;;;;;;;13.58;88.64;98457.24;1665818;84;21600;-85
2021/05/02 11:26:08;;;;;;;24.60;19.07;;;;;;;13.65;88.21;98466.46;1651872;85;21181;-86
2021/05/02 11:28:44;;;;;;;25.40;18.50;;;;;;;13.82;87.56;98462.73;1658058;84;21406;-86